createdAt,value
2023-04-21T08:06:44.593Z,15.60
2023-04-21T08:09:30.679Z,14.70
2023-04-21T08:12:24.041Z,14.30
2023-04-21T08:15:12.658Z,15.00
2023-04-21T08:17:56.141Z,15.60
2023-04-21T08:20:44.575Z,12.30
2023-04-21T08:23:41.313Z,14.00
2023-04-21T08:26:25.547Z,11.70
2023-04-21T08:29:13.561Z,12.30
2023-04-21T08:31:59.868Z,9.70
2023-04-21T08:34:45.383Z,11.40
2023-04-21T08:37:32.565Z,12.10
2023-04-21T08:40:15.988Z,15.80
2023-04-21T08:42:59.560Z,13.40
2023-04-21T08:45:54.506Z,13.00
2023-04-21T08:48:47.213Z,13.70
2023-04-21T08:51:31.262Z,11.30
2023-04-21T08:54:16.633Z,13.10
2023-04-21T08:57:11.938Z,10.30
2023-04-21T08:59:57.970Z,12.50
2023-04-21T09:03:01.245Z,12.80
2023-04-21T09:05:58.865Z,11.30
2023-04-21T09:08:52.614Z,9.10
2023-04-21T09:11:57.341Z,13.10
2023-04-21T09:14:40.565Z,13.00
2023-04-21T09:17:32.536Z,7.50
2023-04-21T09:20:21.848Z,12.90
2023-04-21T09:23:06.687Z,11.60
2023-04-21T09:25:50.224Z,16.20
2023-04-21T09:28:36.033Z,9.90
2023-04-21T09:31:25.196Z,16.10
2023-04-21T09:34:29.255Z,11.00
2023-04-21T09:40:18.009Z,8.00
2023-04-21T09:43:03.431Z,12.40
2023-04-21T09:45:47.160Z,8.20
2023-04-21T09:48:34.679Z,9.00
2023-04-21T09:51:32.704Z,16.00
2023-04-21T09:54:31.918Z,10.70
2023-04-21T09:57:27.932Z,10.50
2023-04-21T10:00:13.694Z,12.70
2023-04-21T10:02:58.980Z,11.30
2023-04-21T10:05:43.415Z,10.20
2023-04-21T10:08:29.521Z,11.00
2023-04-21T10:11:13.967Z,16.60
2023-04-21T10:13:57.456Z,12.00
2023-04-21T10:16:43.636Z,11.50
2023-04-21T10:19:28.723Z,8.70
2023-04-21T10:22:12.265Z,10.10
2023-04-21T10:24:57.174Z,13.60
2023-04-21T10:27:41.874Z,9.00
2023-04-21T10:30:28.884Z,21.00
2023-04-21T10:33:28.361Z,10.90
2023-04-21T10:36:28.255Z,11.40
2023-04-21T10:39:35.455Z,8.20
2023-04-21T10:42:41.742Z,9.40
2023-04-21T10:45:45.686Z,8.50
2023-04-21T10:48:28.805Z,14.70
2023-04-21T10:51:33.858Z,17.50
2023-04-21T10:54:21.802Z,9.50
2023-04-21T10:57:08.288Z,8.10
2023-04-21T10:59:53.515Z,12.90
2023-04-21T11:02:39.180Z,11.90
2023-04-21T11:05:34.835Z,12.30
2023-04-21T11:08:30.459Z,8.90
2023-04-21T11:11:45.358Z,11.40
2023-04-21T11:14:48.878Z,11.20
2023-04-21T11:17:50.025Z,10.10
2023-04-21T11:20:53.540Z,9.60
2023-04-21T11:23:49.752Z,9.00
2023-04-21T11:26:58.555Z,13.50
2023-04-21T11:29:51.424Z,9.40
2023-04-21T11:32:38.548Z,10.20
2023-04-21T11:35:31.457Z,12.20
2023-04-21T11:38:24.786Z,10.30
2023-04-21T11:41:11.556Z,9.00
2023-04-21T11:44:06.324Z,7.50
2023-04-21T11:47:09.490Z,7.80
2023-04-21T11:50:21.053Z,7.70
2023-04-21T11:53:14.193Z,11.20
2023-04-21T11:56:33.437Z,7.20
2023-04-21T11:59:29.873Z,9.90
2023-04-21T12:02:52.528Z,15.40
2023-04-21T12:05:46.210Z,10.90
2023-04-21T12:08:31.315Z,10.20
2023-04-21T12:11:27.804Z,6.30
2023-04-21T12:14:28.385Z,8.00
2023-04-21T12:17:20.468Z,10.10
2023-04-21T12:20:16.721Z,10.20
2023-04-21T12:23:01.221Z,11.40
2023-04-21T12:25:47.377Z,12.10
2023-04-21T12:28:38.859Z,9.30
2023-04-21T12:31:40.651Z,8.30
2023-04-21T12:35:04.976Z,8.60
2023-04-21T12:37:55.547Z,11.70
2023-04-21T12:40:46.334Z,9.10
2023-04-21T12:43:35.416Z,9.80
2023-04-21T12:46:28.543Z,10.90
2023-04-21T12:49:17.548Z,10.40
2023-04-21T12:52:30.769Z,7.70
2023-04-21T12:55:34.497Z,11.50
2023-04-21T12:58:19.684Z,7.90
2023-04-21T13:01:08.300Z,10.40
2023-04-21T13:03:54.743Z,12.60
2023-04-21T13:06:43.301Z,10.40
2023-04-21T13:09:28.900Z,8.50
2023-04-21T13:12:12.350Z,9.00
2023-04-21T13:14:55.461Z,8.50
2023-04-21T13:17:38.984Z,10.50
2023-04-21T13:20:22.571Z,11.30
2023-04-21T13:23:05.841Z,10.30
2023-04-21T13:25:51.020Z,12.10
2023-04-21T13:28:34.669Z,8.60
2023-04-21T13:31:17.727Z,10.00
2023-04-21T13:34:01.694Z,11.10
2023-04-21T13:36:47.829Z,11.20
2023-04-21T13:39:34.278Z,15.00
2023-04-21T13:42:17.634Z,9.10
2023-04-21T13:45:03.306Z,7.00
2023-04-21T13:47:46.726Z,8.60
2023-04-21T13:50:35.413Z,9.50
2023-04-21T13:53:21.785Z,14.20
2023-04-21T13:56:10.140Z,8.30
2023-04-21T13:58:53.398Z,8.40
2023-04-21T14:01:39.253Z,8.30
2023-04-21T14:04:25.141Z,10.80
2023-04-21T14:07:11.212Z,10.90
2023-04-21T14:09:54.591Z,10.90
2023-04-21T14:12:40.798Z,7.00
2023-04-21T14:15:24.038Z,14.10
2023-04-21T14:18:07.673Z,10.40
2023-04-21T14:20:52.112Z,8.50
2023-04-21T14:23:37.423Z,8.60
2023-04-21T14:26:21.115Z,13.20
2023-04-21T14:29:07.066Z,11.90
2023-04-21T14:31:57.722Z,12.60
2023-04-21T14:34:53.302Z,12.80
2023-04-21T14:37:39.945Z,12.80
2023-04-21T14:40:40.144Z,7.70
2023-04-21T14:43:23.228Z,11.40
2023-04-21T14:46:09.154Z,5.80
2023-04-21T14:49:08.011Z,7.80
2023-04-21T14:52:00.078Z,9.20
2023-04-21T14:54:51.619Z,7.60
2023-04-21T14:57:44.956Z,10.20
2023-04-21T15:00:36.621Z,12.60
2023-04-21T15:03:28.978Z,12.20
2023-04-21T15:09:36.597Z,10.70
2023-04-21T15:12:30.052Z,7.40
2023-04-21T15:15:33.123Z,9.60
2023-04-21T15:18:16.366Z,13.60
2023-04-21T15:21:11.132Z,12.80
2023-04-21T15:23:54.333Z,9.60
2023-04-21T15:26:47.396Z,8.00
2023-04-21T15:29:30.599Z,12.20
2023-04-21T15:32:37.004Z,8.80
2023-04-21T15:35:25.490Z,8.10
2023-04-21T15:38:09.024Z,20.20
2023-04-21T15:41:17.962Z,15.40
2023-04-21T15:44:21.318Z,8.00
2023-04-21T15:47:17.176Z,8.30
2023-04-21T15:50:10.639Z,8.40
2023-04-21T15:52:56.740Z,9.30
2023-04-21T15:56:00.234Z,9.40
2023-04-21T15:58:45.948Z,9.80
2023-04-21T16:01:41.236Z,10.50
2023-04-21T16:04:27.005Z,10.20
2023-04-21T16:07:36.699Z,8.80
2023-04-21T16:10:38.179Z,9.80
2023-04-21T16:13:37.819Z,10.40
2023-04-21T16:16:50.718Z,8.30
2023-04-21T16:19:45.579Z,11.20
2023-04-21T16:22:38.784Z,9.70
2023-04-21T16:25:32.821Z,12.50
2023-04-21T16:28:22.490Z,9.70
2023-04-21T16:31:08.341Z,12.70
2023-04-21T16:34:02.435Z,11.60
2023-04-21T16:36:45.634Z,10.90
2023-04-21T16:39:34.829Z,13.90
2023-04-21T16:42:40.487Z,10.50
2023-04-21T16:45:30.000Z,9.60
2023-04-21T16:48:36.284Z,14.40
2023-04-21T16:51:28.888Z,10.10
2023-04-21T16:57:40.638Z,11.10
2023-04-21T17:00:31.335Z,14.90
2023-04-21T17:03:36.978Z,13.70
2023-04-21T17:09:12.144Z,18.00
2023-04-21T17:11:55.231Z,14.80
2023-04-21T17:14:48.740Z,12.60
2023-04-21T17:18:01.786Z,14.70
2023-04-21T17:20:45.249Z,11.20
2023-04-21T17:23:28.322Z,12.70
2023-04-21T17:26:31.709Z,10.60
2023-04-21T17:29:35.146Z,13.70
2023-04-21T17:32:23.584Z,18.30
2023-04-21T17:35:20.326Z,15.40
2023-04-21T17:38:12.316Z,12.90
2023-04-21T17:41:06.824Z,14.20
2023-04-21T17:44:07.819Z,26.90
2023-04-21T17:47:02.281Z,16.90
2023-04-21T17:49:51.934Z,17.40
2023-04-21T17:52:41.443Z,15.40
2023-04-21T17:55:41.102Z,15.60
2023-04-21T17:58:29.862Z,10.60
2023-04-21T18:01:24.566Z,14.60
2023-04-21T18:04:25.384Z,20.90
2023-04-21T18:07:18.037Z,19.00
2023-04-21T18:10:13.735Z,19.80
2023-04-21T18:13:02.920Z,21.00
2023-04-21T18:15:51.625Z,26.10
2023-04-21T18:18:41.576Z,33.30
2023-04-21T18:21:48.034Z,29.80
2023-04-21T18:24:43.134Z,35.50
2023-04-21T18:27:52.264Z,32.00
2023-04-21T18:30:58.200Z,36.00
2023-04-21T18:34:00.154Z,31.70
2023-04-21T18:39:51.661Z,24.60
2023-04-21T18:42:46.773Z,29.40
2023-04-21T18:48:29.059Z,28.20
2023-04-21T18:51:31.909Z,24.80
2023-04-21T18:54:54.872Z,25.60
2023-04-21T18:57:58.545Z,27.10
2023-04-21T19:01:09.955Z,22.30
2023-04-21T19:04:22.654Z,24.80
2023-04-21T19:07:53.620Z,28.30
2023-04-21T19:11:19.721Z,26.90
2023-04-21T19:14:47.143Z,41.30
2023-04-21T19:18:29.901Z,40.90
2023-04-21T19:22:05.662Z,37.90
2023-04-21T19:25:25.521Z,36.40
2023-04-21T19:29:00.533Z,37.40
2023-04-21T19:32:21.730Z,32.50
2023-04-21T19:35:27.747Z,36.10
2023-04-21T19:39:05.346Z,36.50
2023-04-21T19:42:27.412Z,38.60
2023-04-21T19:45:54.262Z,30.60
2023-04-21T19:49:13.058Z,31.50
2023-04-21T19:53:00.978Z,31.50
2023-04-21T19:56:57.880Z,35.40
2023-04-21T20:00:23.858Z,31.60
2023-04-21T20:04:12.089Z,30.40
2023-04-21T20:08:12.858Z,43.50
2023-04-21T20:11:56.906Z,31.80
2023-04-21T20:15:27.733Z,31.80
2023-04-21T20:19:03.075Z,32.00
2023-04-21T20:22:26.017Z,42.30
2023-04-21T20:26:29.867Z,35.30
2023-04-21T20:30:08.738Z,32.30
2023-04-21T20:33:50.217Z,30.00
2023-04-21T20:37:11.369Z,28.00
2023-04-21T20:40:37.406Z,28.70
2023-04-21T20:44:21.194Z,26.90
2023-04-21T20:47:46.857Z,28.70
2023-04-21T20:51:38.323Z,29.30
2023-04-21T20:55:07.570Z,29.00
2023-04-21T20:58:28.199Z,29.40
2023-04-21T21:02:11.180Z,27.30
2023-04-21T21:05:59.008Z,25.30
2023-04-21T21:08:57.876Z,24.40
2023-04-21T21:12:35.575Z,23.90
2023-04-21T21:16:01.188Z,22.60
2023-04-21T21:20:01.919Z,24.20
2023-04-21T21:23:37.970Z,17.40
2023-04-21T21:27:14.389Z,21.70
2023-04-21T21:30:44.854Z,21.00
2023-04-21T21:34:21.485Z,15.40
2023-04-21T21:38:04.902Z,19.50
2023-04-21T21:41:43.079Z,16.90
2023-04-21T21:44:52.232Z,20.40
2023-04-21T21:48:46.162Z,19.00
2023-04-21T21:52:33.162Z,21.60
2023-04-21T21:56:15.986Z,16.90
2023-04-21T22:00:14.131Z,13.60
2023-04-21T22:03:48.930Z,16.20
2023-04-21T22:07:14.397Z,17.60
2023-04-21T22:10:57.424Z,24.90
2023-04-21T22:14:22.560Z,14.80
2023-04-21T22:17:54.737Z,16.00
2023-04-21T22:21:11.575Z,16.10
2023-04-21T22:25:15.552Z,17.70
2023-04-21T22:29:10.349Z,13.10
2023-04-21T22:32:46.804Z,14.00
2023-04-21T22:36:50.938Z,14.40
2023-04-21T22:40:44.744Z,12.30
2023-04-21T22:44:26.913Z,15.60
2023-04-21T22:47:50.856Z,14.50
2023-04-21T22:51:18.543Z,11.60
2023-04-21T22:55:16.287Z,14.70
2023-04-21T22:58:49.884Z,13.50
2023-04-21T23:02:46.410Z,16.40
2023-04-21T23:06:22.911Z,12.00
2023-04-21T23:10:06.704Z,14.80
2023-04-21T23:13:53.016Z,18.50
2023-04-21T23:17:56.995Z,14.10
2023-04-21T23:22:00.928Z,16.40
2023-04-21T23:25:47.277Z,11.30
2023-04-21T23:29:38.790Z,13.90
2023-04-21T23:33:42.878Z,12.50
2023-04-21T23:37:37.768Z,15.60
2023-04-21T23:41:41.826Z,12.60
2023-04-21T23:45:17.662Z,14.40
2023-04-21T23:48:51.482Z,12.70
2023-04-21T23:52:17.076Z,12.60
2023-04-21T23:56:10.952Z,10.30
